createdAt,value
2019-04-11T00:00:28.734Z,41.70
2019-04-11T00:03:35.576Z,20.80
2019-04-11T00:06:41.481Z,19.97
2019-04-11T00:09:47.965Z,19.20
2019-04-11T00:12:54.886Z,17.03
2019-04-11T00:16:01.309Z,17.57
2019-04-11T00:19:09.326Z,16.80
2019-04-11T00:22:15.254Z,17.87
2019-04-11T00:25:21.082Z,16.67
2019-04-11T00:28:27.770Z,19.83
2019-04-11T00:31:34.771Z,19.80
2019-04-11T00:34:40.649Z,20.37
2019-04-11T00:37:47.405Z,21.87
2019-04-11T00:40:54.798Z,22.87
2019-04-11T00:44:00.839Z,24.60
2019-04-11T00:47:06.960Z,28.50
2019-04-11T00:50:12.876Z,25.70
2019-04-11T00:53:19.075Z,27.60
2019-04-11T00:56:26.265Z,27.40
2019-04-11T00:59:32.208Z,25.77
2019-04-11T01:02:38.186Z,28.80
2019-04-11T01:05:43.897Z,26.43
2019-04-11T01:08:49.625Z,27.43
2019-04-11T01:11:56.324Z,28.40
2019-04-11T01:15:03.169Z,31.93
2019-04-11T01:18:09.751Z,30.77
2019-04-11T01:21:17.844Z,31.50
2019-04-11T01:24:23.914Z,29.63
2019-04-11T01:27:30.401Z,32.27
2019-04-11T01:30:53.346Z,30.37
2019-04-11T01:34:00.120Z,36.40
2019-04-11T01:37:07.145Z,34.23
2019-04-11T01:40:13.779Z,32.80
2019-04-11T01:43:19.873Z,35.03
2019-04-11T01:46:26.421Z,33.13
2019-04-11T01:49:32.409Z,28.57
2019-04-11T01:52:39.347Z,29.07
2019-04-11T01:55:45.127Z,29.53
2019-04-11T01:58:51.000Z,31.10
2019-04-11T02:02:14.724Z,27.40
2019-04-11T02:05:25.213Z,29.87
2019-04-11T02:08:31.287Z,30.67
2019-04-11T02:11:37.316Z,30.37
2019-04-11T02:14:43.909Z,31.90
2019-04-11T02:17:50.822Z,35.50
2019-04-11T02:20:57.605Z,38.37
2019-04-11T02:24:15.304Z,35.10
2019-04-11T02:27:24.773Z,33.73
2019-04-11T02:30:33.908Z,38.80
2019-04-11T02:33:41.410Z,42.43
2019-04-11T02:36:49.062Z,44.27
2019-04-11T02:39:55.966Z,40.30
2019-04-11T02:43:02.476Z,46.40
2019-04-11T02:46:17.567Z,47.30
2019-04-11T02:49:16.996Z,51.83
2019-04-11T02:52:23.025Z,49.87
2019-04-11T02:55:29.487Z,52.83
2019-04-11T02:58:36.891Z,56.17
2019-04-11T03:01:44.022Z,49.53
2019-04-11T03:04:51.015Z,53.87
2019-04-11T03:07:58.416Z,48.00
2019-04-11T03:11:05.393Z,45.33
2019-04-11T03:14:12.569Z,42.60
2019-04-11T03:17:22.967Z,39.40
2019-04-11T03:20:34.935Z,40.90
2019-04-11T03:23:35.600Z,41.90
2019-04-11T03:26:43.482Z,38.67
2019-04-11T03:29:51.623Z,37.07
2019-04-11T03:33:55.141Z,40.40
2019-04-11T03:37:00.076Z,39.83
2019-04-11T03:39:32.742Z,38.73
2019-04-11T03:42:41.742Z,42.27
2019-04-11T03:45:48.992Z,38.27
2019-04-11T03:48:51.140Z,40.27
2019-04-11T03:51:47.694Z,35.23
2019-04-11T03:54:53.928Z,35.17
2019-04-11T03:58:01.207Z,32.27
2019-04-11T04:01:10.578Z,30.83
2019-04-11T04:04:15.474Z,28.00
2019-04-11T04:07:27.715Z,32.13
2019-04-11T04:10:36.146Z,32.67
2019-04-11T04:13:47.806Z,27.90
2019-04-11T04:17:28.332Z,31.50
2019-04-11T04:20:59.689Z,29.50
2019-04-11T04:24:27.754Z,27.27
2019-04-11T04:27:34.810Z,27.13
2019-04-11T04:30:42.783Z,25.53
2019-04-11T04:33:48.303Z,30.10
2019-04-11T04:36:55.674Z,29.17
2019-04-11T04:40:21.161Z,29.07
2019-04-11T04:43:10.506Z,31.63
2019-04-11T04:46:30.083Z,40.30
2019-04-11T04:49:24.162Z,35.63
2019-04-11T04:52:31.906Z,32.73
2019-04-11T04:55:37.667Z,33.90
2019-04-11T04:58:44.427Z,31.60
2019-04-11T05:01:53.288Z,30.47
2019-04-11T05:05:01.371Z,30.90
2019-04-11T05:08:08.409Z,28.73
2019-04-11T05:11:15.875Z,28.73
2019-04-11T05:14:23.177Z,34.03
2019-04-11T05:17:29.130Z,28.57
2019-04-11T05:20:34.898Z,27.03
2019-04-11T05:23:41.660Z,29.67
2019-04-11T05:26:48.128Z,28.13
2019-04-11T05:29:54.037Z,32.20
2019-04-11T05:32:59.834Z,28.93
2019-04-11T05:36:05.989Z,28.97
2019-04-11T05:39:13.089Z,28.93
2019-04-11T05:42:20.003Z,23.83
2019-04-11T05:45:26.713Z,25.30
2019-04-11T05:48:51.313Z,27.93
2019-04-11T05:52:06.140Z,27.77
2019-04-11T05:55:13.700Z,25.07
2019-04-11T05:58:19.694Z,25.10
2019-04-11T06:01:30.737Z,23.70
2019-04-11T06:04:41.012Z,26.93
2019-04-11T06:07:57.564Z,26.80
2019-04-11T06:11:24.218Z,26.40
2019-04-11T06:14:43.745Z,25.30
2019-04-11T06:17:50.303Z,31.40
2019-04-11T06:20:59.750Z,26.03
2019-04-11T06:24:24.458Z,26.10
2019-04-11T06:27:49.769Z,22.70
2019-04-11T06:31:24.829Z,22.60
2019-04-11T06:34:32.006Z,26.63
2019-04-11T06:38:11.888Z,26.97
2019-04-11T06:41:32.967Z,25.27
2019-04-11T06:44:50.593Z,25.43
2019-04-11T06:48:23.141Z,26.67
2019-04-11T06:51:39.857Z,25.00
2019-04-11T06:55:08.704Z,28.07
2019-04-11T06:58:25.513Z,27.00
2019-04-11T07:01:32.214Z,26.30
2019-04-11T07:05:04.435Z,21.83
2019-04-11T07:08:10.617Z,25.20
2019-04-11T07:11:17.798Z,29.87
2019-04-11T07:14:37.674Z,25.63
2019-04-11T07:18:01.147Z,25.00
2019-04-11T07:21:11.881Z,20.97
2019-04-11T07:24:45.357Z,18.50
2019-04-11T07:28:11.006Z,16.53
2019-04-11T07:31:41.309Z,20.10
2019-04-11T07:35:05.908Z,18.13
2019-04-11T07:38:16.256Z,15.07
2019-04-11T07:41:52.143Z,16.73
2019-04-11T07:45:00.956Z,17.93
2019-04-11T07:48:23.189Z,18.33
2019-04-11T07:51:30.378Z,19.47
2019-04-11T07:54:36.933Z,13.97
2019-04-11T07:57:48.987Z,15.30
2019-04-11T08:01:16.868Z,14.67
2019-04-11T08:04:57.660Z,13.93
2019-04-11T08:08:21.411Z,11.57
2019-04-11T08:11:31.776Z,10.47
2019-04-11T08:14:55.096Z,11.77
2019-04-11T08:18:04.336Z,11.37
2019-04-11T08:21:37.313Z,10.43
2019-04-11T08:32:55.625Z,6.53
2019-04-11T08:36:15.697Z,9.13
2019-04-11T08:39:29.092Z,7.80
2019-04-11T08:42:53.427Z,5.77
2019-04-11T08:46:16.806Z,5.50
2019-04-11T08:49:35.082Z,9.30
2019-04-11T08:53:02.831Z,8.37
2019-04-11T08:56:21.087Z,6.33
2019-04-11T09:00:02.168Z,4.30
2019-04-11T09:03:23.882Z,6.53
2019-04-11T09:06:35.379Z,9.33
2019-04-11T09:09:59.769Z,9.27
2019-04-11T09:13:44.004Z,8.20
2019-04-11T09:16:58.965Z,8.77
2019-04-11T09:20:27.640Z,6.67
2019-04-11T09:23:33.666Z,6.70
2019-04-11T09:26:58.252Z,6.20
2019-04-11T09:30:11.437Z,6.80
2019-04-11T09:33:33.112Z,4.40
2019-04-11T09:36:47.281Z,5.53
2019-04-11T09:40:12.764Z,7.57
2019-04-11T09:43:22.034Z,4.33
2019-04-11T09:46:40.766Z,3.03
2019-04-11T09:49:51.652Z,3.30
2019-04-11T09:52:58.048Z,9.73
2019-04-11T09:56:21.214Z,4.03
2019-04-11T09:59:49.727Z,3.57
2019-04-11T10:03:02.474Z,3.30
2019-04-11T10:06:25.072Z,4.30
2019-04-11T10:10:08.654Z,5.60
2019-04-11T10:13:42.819Z,4.13
2019-04-11T10:17:06.722Z,6.87
2019-04-11T10:20:16.111Z,3.37
2019-04-11T10:23:29.226Z,3.57
2019-04-11T10:26:40.258Z,2.90
2019-04-11T10:30:04.634Z,6.60
2019-04-11T10:33:18.550Z,3.30
2019-04-11T10:36:29.590Z,4.63
2019-04-11T10:39:59.869Z,3.57
2019-04-11T10:43:06.002Z,2.20
2019-04-11T10:46:47.007Z,2.30
2019-04-11T10:50:21.757Z,4.90
2019-04-11T10:53:27.934Z,3.60
2019-04-11T10:56:51.872Z,10.30
2019-04-11T10:59:58.647Z,3.23
2019-04-11T11:03:22.233Z,1.90
2019-04-11T11:06:29.612Z,4.23
2019-04-11T11:09:56.769Z,1.97
2019-04-11T11:13:21.556Z,4.43
2019-04-11T11:16:34.042Z,1.47
2019-04-11T11:20:11.895Z,1.53
2019-04-11T11:23:25.091Z,3.03
2019-04-11T11:26:35.651Z,3.57
2019-04-11T11:30:12.757Z,3.37
2019-04-11T11:33:20.464Z,3.67
2019-04-11T11:36:54.984Z,6.13
2019-04-11T11:40:20.345Z,8.93
2019-04-11T11:43:36.685Z,32.40
2019-04-11T11:47:03.384Z,9.10
2019-04-11T11:50:14.669Z,11.00
2019-04-11T11:53:27.322Z,10.33
2019-04-11T11:56:34.136Z,7.47
2019-04-11T11:59:45.705Z,6.33
2019-04-11T12:03:11.408Z,5.50
2019-04-11T12:06:22.231Z,4.83
2019-04-11T12:09:53.005Z,6.40
2019-04-11T12:13:30.418Z,10.20
2019-04-11T12:17:01.183Z,6.60
2019-04-11T12:20:16.006Z,12.40
2019-04-11T12:23:48.549Z,5.80
2019-04-11T12:27:13.180Z,6.80
2019-04-11T12:30:31.339Z,7.80
2019-04-11T12:33:49.943Z,7.37
2019-04-11T12:36:56.410Z,3.07
2019-04-11T12:40:42.201Z,3.77
2019-04-11T12:44:15.611Z,13.63
2019-04-11T12:47:26.853Z,8.30
2019-04-11T12:50:58.615Z,3.50
2019-04-11T12:54:04.839Z,4.17
2019-04-11T12:57:28.187Z,3.13
2019-04-11T13:00:55.828Z,4.07
2019-04-11T13:04:19.279Z,3.33
2019-04-11T13:07:51.368Z,2.57
2019-04-11T13:10:57.003Z,3.53
2019-04-11T13:14:13.004Z,3.67
2019-04-11T13:17:22.767Z,4.60
2019-04-11T13:21:02.776Z,3.97
2019-04-11T13:24:27.761Z,4.10
2019-04-11T13:27:37.787Z,3.47
2019-04-11T13:31:23.613Z,4.47
2019-04-11T13:34:28.369Z,5.23
2019-04-11T13:37:51.447Z,11.37
2019-04-11T13:41:15.923Z,3.10
2019-04-11T13:44:40.571Z,3.87
2019-04-11T13:48:04.189Z,10.00
2019-04-11T13:51:15.607Z,9.60
2019-04-11T13:54:39.008Z,12.20
2019-04-11T13:58:06.445Z,11.23
2019-04-11T14:01:16.531Z,5.90
2019-04-11T14:05:16.348Z,4.70
2019-04-11T14:09:08.816Z,5.13
2019-04-11T14:15:29.567Z,4.43
2019-04-11T14:18:47.668Z,6.00
2019-04-11T14:21:53.289Z,4.77
2019-04-11T14:25:16.332Z,7.07
2019-04-11T14:28:22.343Z,5.50
2019-04-11T14:32:02.505Z,5.27
2019-04-11T14:35:36.232Z,8.87
2019-04-11T14:38:47.971Z,7.67
2019-04-11T14:42:11.785Z,9.47
2019-04-11T14:45:36.588Z,6.03
2019-04-11T14:48:44.557Z,8.73
2019-04-11T14:52:07.967Z,9.77
2019-04-11T14:55:13.690Z,7.87
2019-04-11T14:58:39.816Z,8.33
2019-04-11T15:01:47.777Z,10.07
2019-04-11T15:05:15.249Z,7.87
2019-04-11T15:08:30.887Z,10.87
2019-04-11T15:11:54.117Z,12.30
2019-04-11T15:15:24.906Z,11.47
2019-04-11T15:18:32.553Z,11.77
2019-04-11T15:21:57.523Z,12.30
2019-04-11T15:25:10.318Z,11.77
2019-04-11T15:28:53.056Z,10.23
2019-04-11T15:32:15.928Z,11.23
2019-04-11T15:35:21.719Z,17.63
2019-04-11T15:38:52.569Z,9.27
2019-04-11T15:42:02.370Z,9.87
2019-04-11T15:45:29.488Z,10.30
2019-04-11T15:49:03.330Z,9.90
2019-04-11T15:52:15.505Z,5.60
2019-04-11T15:55:53.343Z,3.30
2019-04-11T15:59:05.644Z,3.87
2019-04-11T16:02:36.290Z,5.17
2019-04-11T16:06:01.585Z,4.57
2019-04-11T16:09:12.662Z,5.03
2019-04-11T16:12:26.700Z,3.57
2019-04-11T16:15:34.823Z,3.53
2019-04-11T16:18:58.191Z,4.07
2019-04-11T16:22:24.866Z,4.83
2019-04-11T16:25:30.399Z,6.13
2019-04-11T16:28:53.590Z,6.43
2019-04-11T16:32:02.079Z,5.87
2019-04-11T16:35:14.954Z,4.90
2019-04-11T16:38:21.877Z,9.03
2019-04-11T16:41:45.455Z,7.10
2019-04-11T16:45:13.241Z,9.30
2019-04-11T16:48:18.851Z,7.20
2019-04-11T16:51:30.769Z,9.10
2019-04-11T16:54:31.869Z,9.83
2019-04-11T16:57:37.480Z,9.03
2019-04-11T17:00:43.564Z,8.50
2019-04-11T17:03:55.182Z,8.13
2019-04-11T17:07:15.000Z,8.30
2019-04-11T17:10:42.719Z,10.23
2019-04-11T17:13:48.350Z,6.87
2019-04-11T17:16:54.454Z,27.17
2019-04-11T17:20:00.116Z,10.60
2019-04-11T17:23:05.901Z,13.10
2019-04-11T17:26:11.633Z,13.47
2019-04-11T17:29:17.250Z,14.07
2019-04-11T17:32:23.634Z,15.33
2019-04-11T17:35:31.698Z,16.80
2019-04-11T17:38:37.827Z,9.30
2019-04-11T17:41:43.520Z,7.03
2019-04-11T17:44:49.124Z,8.73
2019-04-11T17:47:57.110Z,14.67
2019-04-11T17:51:04.832Z,7.73
2019-04-11T17:54:09.386Z,8.93
2019-04-11T17:57:14.982Z,8.77
2019-04-11T18:00:30.080Z,12.33
2019-04-11T18:03:34.798Z,6.73
2019-04-11T18:06:40.411Z,8.47
2019-04-11T18:09:46.254Z,12.63
2019-04-11T18:12:55.747Z,10.10
2019-04-11T18:16:01.926Z,8.20
2019-04-11T18:19:09.790Z,6.03
2019-04-11T18:22:14.936Z,7.17
2019-04-11T18:25:21.475Z,8.77
2019-04-11T18:28:27.303Z,7.73
2019-04-11T18:31:33.086Z,6.20
2019-04-11T18:34:43.987Z,7.17
2019-04-11T18:37:49.621Z,6.03
2019-04-11T18:40:55.495Z,5.77
2019-04-11T18:44:01.175Z,7.30
2019-04-11T18:47:06.947Z,5.47
2019-04-11T18:50:12.790Z,9.27
2019-04-11T18:53:19.185Z,5.03
2019-04-11T18:56:25.094Z,3.97
2019-04-11T18:59:33.744Z,5.47
2019-04-11T19:02:40.212Z,6.70
2019-04-11T19:05:45.589Z,4.20
2019-04-11T19:08:51.177Z,4.20
2019-04-11T19:11:56.884Z,4.03
2019-04-11T19:15:02.515Z,4.70
2019-04-11T19:18:09.247Z,3.93
2019-04-11T19:21:14.872Z,4.33
2019-04-11T19:24:20.569Z,9.13
2019-04-11T19:27:26.539Z,10.63
2019-04-11T19:30:32.279Z,10.47
2019-04-11T19:33:39.982Z,11.17
2019-04-11T19:36:47.012Z,12.63
2019-04-11T19:39:52.814Z,13.40
2019-04-11T19:42:58.803Z,17.17
2019-04-11T19:46:04.741Z,16.63
2019-04-11T19:49:10.538Z,18.33
2019-04-11T19:52:16.293Z,19.93
2019-04-11T19:55:52.246Z,15.50
2019-04-11T19:58:59.821Z,15.00
2019-04-11T20:02:05.888Z,20.00
2019-04-11T20:05:15.136Z,17.33
2019-04-11T20:08:21.985Z,19.40
2019-04-11T20:11:29.418Z,16.83
2019-04-11T20:14:35.461Z,20.33
2019-04-11T20:17:44.592Z,21.03
2019-04-11T20:20:48.546Z,24.57
2019-04-11T20:23:54.274Z,19.63
2019-04-11T20:27:00.018Z,19.67
2019-04-11T20:30:06.056Z,16.67
2019-04-11T20:33:12.457Z,15.67
2019-04-11T20:36:18.172Z,13.57
2019-04-11T20:39:23.896Z,16.53
2019-04-11T20:42:29.727Z,13.67
2019-04-11T20:45:37.291Z,12.83
2019-04-11T20:48:43.513Z,16.83
2019-04-11T20:51:49.170Z,15.37
2019-04-11T20:54:54.895Z,15.03
2019-04-11T20:58:00.582Z,13.43
2019-04-11T21:01:06.432Z,13.30
2019-04-11T21:04:12.180Z,11.67
2019-04-11T21:07:17.934Z,15.23
2019-04-11T21:10:25.163Z,13.43
2019-04-11T21:13:30.871Z,14.27
2019-04-11T21:16:36.640Z,13.57
2019-04-11T21:19:42.410Z,14.70
2019-04-11T21:22:48.131Z,12.60
2019-04-11T21:25:53.814Z,12.03
2019-04-11T21:28:59.553Z,14.23
2019-04-11T21:32:05.263Z,12.67
2019-04-11T21:35:11.237Z,11.67
2019-04-11T21:38:16.976Z,9.90
2019-04-11T21:41:22.697Z,10.40
2019-04-11T21:44:28.382Z,9.30
2019-04-11T21:47:36.886Z,8.70
2019-04-11T21:50:41.590Z,11.37
2019-04-11T21:53:47.301Z,14.40
2019-04-11T21:56:53.013Z,13.40
2019-04-11T22:00:01.396Z,11.03
2019-04-11T22:03:08.246Z,12.70
2019-04-11T22:06:15.110Z,12.30
2019-04-11T22:09:20.863Z,13.90
2019-04-11T22:12:26.649Z,15.13
2019-04-11T22:15:32.430Z,16.27
2019-04-11T22:18:38.109Z,14.07
2019-04-11T22:21:45.439Z,14.70
2019-04-11T22:24:51.283Z,14.53
2019-04-11T22:27:57.002Z,15.10
2019-04-11T22:31:02.828Z,17.07
2019-04-11T22:34:13.822Z,15.47
2019-04-11T22:37:19.601Z,16.67
2019-04-11T22:40:25.291Z,18.33
2019-04-11T22:43:31.048Z,23.23
2019-04-11T22:46:37.809Z,19.73
2019-04-11T22:49:44.032Z,18.30
2019-04-11T22:52:49.740Z,19.67
2019-04-11T22:55:55.414Z,17.33
2019-04-11T22:59:01.134Z,17.97
2019-04-11T23:02:23.857Z,18.80
2019-04-11T23:05:29.663Z,20.17
2019-04-11T23:08:35.344Z,23.63
2019-04-11T23:11:44.492Z,25.77
2019-04-11T23:14:49.506Z,27.43
2019-04-11T23:17:55.244Z,25.30
2019-04-11T23:21:00.915Z,22.33
2019-04-11T23:24:11.725Z,24.97
2019-04-11T23:27:14.119Z,26.67
2019-04-11T23:30:19.812Z,23.33
2019-04-11T23:33:25.544Z,23.70
2019-04-11T23:36:31.218Z,21.63
2019-04-11T23:39:36.951Z,27.50
2019-04-11T23:42:42.682Z,24.37
2019-04-11T23:45:50.899Z,21.60
2019-04-11T23:48:55.860Z,20.27
2019-04-11T23:52:01.594Z,19.73
2019-04-11T23:55:07.825Z,20.33
2019-04-11T23:58:13.521Z,22.13
